createdAt,value
2023-03-21T00:03:42.804Z,2.33
2023-03-21T00:08:48.094Z,2.03
2023-03-21T00:13:53.559Z,2.07
2023-03-21T00:18:59.044Z,2.50
2023-03-21T00:24:04.710Z,1.53
2023-03-21T00:29:10.048Z,1.80
2023-03-21T00:34:20.032Z,1.97
2023-03-21T00:39:23.254Z,1.57
2023-03-21T00:44:28.832Z,1.67
2023-03-21T00:49:34.711Z,2.03
2023-03-21T00:54:39.931Z,2.00
2023-03-21T00:59:45.154Z,1.67
2023-03-21T01:04:51.040Z,1.97
2023-03-21T01:09:56.265Z,2.57
2023-03-21T01:15:01.600Z,3.00
2023-03-21T01:20:07.176Z,3.47
2023-03-21T01:25:22.233Z,4.80
2023-03-21T01:30:23.008Z,2.27
2023-03-21T01:35:27.015Z,2.97
2023-03-21T01:40:34.398Z,3.00
2023-03-21T01:46:08.855Z,2.37
2023-03-21T01:51:14.897Z,2.30
2023-03-21T01:56:25.694Z,2.57
2023-03-21T02:01:35.345Z,2.70
2023-03-21T02:06:49.545Z,2.73
2023-03-21T02:11:56.178Z,2.17
2023-03-21T02:17:19.406Z,2.80
2023-03-21T02:22:27.661Z,2.90
2023-03-21T02:27:36.539Z,3.33
2023-03-21T02:32:53.575Z,3.40
2023-03-21T02:38:08.641Z,3.10
2023-03-21T02:43:36.365Z,2.60
2023-03-21T02:48:50.941Z,3.10
2023-03-21T02:54:28.226Z,2.53
2023-03-21T02:59:11.388Z,3.40
2023-03-21T03:04:26.842Z,3.37
2023-03-21T03:09:40.748Z,3.50
2023-03-21T03:15:02.705Z,2.43
2023-03-21T03:20:15.644Z,3.77
2023-03-21T03:25:23.206Z,3.27
2023-03-21T03:30:27.337Z,3.30
2023-03-21T03:35:31.746Z,3.30
2023-03-21T03:40:49.028Z,3.50
2023-03-21T03:46:00.005Z,3.13
2023-03-21T03:51:17.579Z,4.07
2023-03-21T03:56:25.837Z,4.57
2023-03-21T04:01:31.168Z,4.03
2023-03-21T04:06:36.517Z,3.70
2023-03-21T04:11:41.794Z,4.83
2023-03-21T04:16:47.556Z,3.97
2023-03-21T04:21:53.516Z,4.50
2023-03-21T04:26:58.840Z,4.70
2023-03-21T04:32:04.118Z,4.57
2023-03-21T04:37:11.130Z,4.37
2023-03-21T04:42:21.734Z,4.83
2023-03-21T04:47:27.203Z,4.60
2023-03-21T04:52:32.516Z,4.47
2023-03-21T04:57:38.900Z,4.20
2023-03-21T05:02:44.250Z,4.27
2023-03-21T05:07:50.677Z,4.90
2023-03-21T05:12:56.046Z,4.53
2023-03-21T05:18:02.995Z,6.40
2023-03-21T05:23:09.866Z,6.00
2023-03-21T05:28:18.464Z,8.03
2023-03-21T05:33:23.881Z,5.90
2023-03-21T05:38:29.101Z,7.60
2023-03-21T05:43:34.900Z,6.03
2023-03-21T05:48:40.189Z,5.30
2023-03-21T05:53:45.593Z,4.97
2023-03-21T05:58:50.889Z,5.30
2023-03-21T06:03:56.409Z,4.90
2023-03-21T06:09:01.783Z,7.70
2023-03-21T06:14:07.008Z,5.87
2023-03-21T06:19:12.829Z,6.13
2023-03-21T06:24:19.251Z,5.87
2023-03-21T06:29:24.664Z,5.90
2023-03-21T06:34:30.153Z,7.00
2023-03-21T06:39:43.011Z,8.70
2023-03-21T06:44:49.247Z,5.37
2023-03-21T06:49:54.389Z,5.17
2023-03-21T06:54:59.649Z,5.03
2023-03-21T07:00:05.935Z,7.53
2023-03-21T07:05:11.293Z,6.27
2023-03-21T07:10:16.653Z,5.40
2023-03-21T07:15:22.030Z,6.40
2023-03-21T07:20:27.470Z,4.67
2023-03-21T07:25:32.841Z,4.53
2023-03-21T07:30:38.183Z,3.27
2023-03-21T07:35:43.576Z,4.97
2023-03-21T07:40:49.984Z,3.00
2023-03-21T07:46:00.493Z,2.17
2023-03-21T07:51:06.779Z,2.27
2023-03-21T07:56:12.118Z,1.83
2023-03-21T08:01:18.547Z,1.70
2023-03-21T08:06:25.960Z,2.30
2023-03-21T08:11:32.231Z,1.80
2023-03-21T08:16:38.254Z,1.60
2023-03-21T08:21:43.570Z,1.20
2023-03-21T08:26:48.792Z,1.40
2023-03-21T08:31:54.288Z,1.87
2023-03-21T08:36:59.397Z,1.50
2023-03-21T08:42:05.941Z,2.30
2023-03-21T08:47:11.205Z,2.80
2023-03-21T08:52:16.564Z,3.00
2023-03-21T08:57:23.277Z,2.33
2023-03-21T09:02:28.668Z,2.43
2023-03-21T09:07:36.365Z,2.93
2023-03-21T09:12:41.671Z,3.70
2023-03-21T09:17:48.596Z,1.70
2023-03-21T09:22:54.580Z,1.40
2023-03-21T09:28:02.626Z,2.17
2023-03-21T09:33:09.825Z,1.30
2023-03-21T09:38:15.658Z,1.67
2023-03-21T09:43:52.684Z,2.03
2023-03-21T09:49:14.747Z,2.53
2023-03-21T09:54:38.293Z,1.83
2023-03-21T09:59:53.685Z,2.00
2023-03-21T10:05:01.108Z,2.40
2023-03-21T10:10:07.665Z,1.53
2023-03-21T10:15:16.024Z,1.30
2023-03-21T10:20:30.372Z,1.73
2023-03-21T10:25:41.483Z,1.53
2023-03-21T10:30:59.159Z,1.97
2023-03-21T10:36:13.782Z,1.40
2023-03-21T10:41:20.892Z,1.47
2023-03-21T10:46:28.010Z,1.73
2023-03-21T10:51:39.332Z,1.47
2023-03-21T10:56:50.769Z,1.53
2023-03-21T11:01:58.102Z,1.60
2023-03-21T11:07:09.339Z,1.83
2023-03-21T11:12:17.114Z,1.00
2023-03-21T11:17:25.676Z,1.13
2023-03-21T11:22:33.651Z,1.10
2023-03-21T11:27:40.798Z,1.67
2023-03-21T11:32:46.582Z,1.50
2023-03-21T11:37:54.789Z,0.90
2023-03-21T11:43:05.573Z,1.37
2023-03-21T11:48:14.289Z,1.30
2023-03-21T11:53:31.742Z,1.40
2023-03-21T11:59:04.100Z,1.77
2023-03-21T12:04:48.109Z,5.33
2023-03-21T12:10:14.441Z,8.60
2023-03-21T12:15:22.725Z,1.70
2023-03-21T12:20:58.338Z,1.70
2023-03-21T12:26:24.820Z,1.27
2023-03-21T12:31:55.877Z,1.80
2023-03-21T12:37:23.484Z,1.77
2023-03-21T12:42:40.562Z,1.37
2023-03-21T12:47:51.628Z,2.57
2023-03-21T12:52:59.986Z,1.40
2023-03-21T12:58:14.086Z,1.57
2023-03-21T13:03:45.087Z,1.20
2023-03-21T13:08:58.994Z,1.40
2023-03-21T13:14:17.707Z,1.63
2023-03-21T13:19:44.329Z,1.37
2023-03-21T13:25:01.506Z,1.67
2023-03-21T13:30:22.923Z,1.67
2023-03-21T13:35:39.060Z,8.47
2023-03-21T13:40:53.155Z,4.70
2023-03-21T13:46:04.280Z,2.80
2023-03-21T13:51:12.044Z,1.40
2023-03-21T13:56:20.733Z,1.50
2023-03-21T14:01:43.294Z,1.63
2023-03-21T14:07:03.830Z,1.67
2023-03-21T14:12:33.509Z,1.50
2023-03-21T14:17:36.981Z,1.83
2023-03-21T14:22:44.537Z,1.57
2023-03-21T14:27:54.202Z,1.43
2023-03-21T14:33:02.342Z,1.30
2023-03-21T14:38:09.511Z,1.30
2023-03-21T14:43:14.797Z,1.30
2023-03-21T14:48:20.603Z,1.43
2023-03-21T14:53:34.322Z,0.90
2023-03-21T14:58:42.176Z,1.10
2023-03-21T15:03:48.627Z,3.63
2023-03-21T15:09:00.251Z,1.70
2023-03-21T15:14:08.486Z,1.30
2023-03-21T15:19:16.791Z,1.13
2023-03-21T15:24:27.624Z,1.10
2023-03-21T15:29:37.062Z,1.57
2023-03-21T15:34:42.678Z,3.13
2023-03-21T15:39:49.365Z,1.20
2023-03-21T15:44:57.430Z,1.30
2023-03-21T15:50:05.641Z,3.20
2023-03-21T15:55:28.796Z,1.70
2023-03-21T16:00:42.874Z,1.80
2023-03-21T16:06:08.350Z,1.20
2023-03-21T16:11:28.541Z,1.40
2023-03-21T16:16:34.030Z,1.27
2023-03-21T16:21:39.423Z,1.17
2023-03-21T16:26:49.878Z,1.77
2023-03-21T16:31:55.697Z,1.43
2023-03-21T16:37:01.293Z,1.40
2023-03-21T16:42:06.957Z,2.13
2023-03-21T16:47:20.897Z,3.33
2023-03-21T16:52:26.660Z,2.77
2023-03-21T16:57:32.117Z,2.77
2023-03-21T17:02:37.885Z,1.70
2023-03-21T17:07:45.523Z,1.73
2023-03-21T17:12:51.130Z,1.30
2023-03-21T17:17:56.542Z,2.20
2023-03-21T17:23:01.954Z,2.37
2023-03-21T17:28:07.253Z,2.97
2023-03-21T17:33:12.531Z,2.87
2023-03-21T17:38:18.636Z,4.00
2023-03-21T17:43:23.932Z,3.10
2023-03-21T17:48:30.175Z,3.93
2023-03-21T17:53:35.619Z,4.20
2023-03-21T17:58:40.745Z,3.67
2023-03-21T18:03:46.236Z,4.77
2023-03-21T18:08:54.740Z,5.00
2023-03-21T18:14:14.341Z,5.00
2023-03-21T18:19:07.175Z,6.80
2023-03-21T18:24:12.443Z,9.97
2023-03-21T18:34:26.270Z,9.27
2023-03-21T18:39:31.710Z,8.00
2023-03-21T18:44:37.458Z,7.70
2023-03-21T18:54:50.373Z,8.70
2023-03-21T18:59:55.703Z,6.40
2023-03-21T19:05:01.452Z,8.43
2023-03-21T19:10:17.622Z,7.93
2023-03-21T19:15:17.526Z,7.10
2023-03-21T19:20:22.835Z,9.87
2023-03-21T19:25:28.195Z,10.60
2023-03-21T19:30:37.195Z,9.00
2023-03-21T19:35:44.673Z,6.30
2023-03-21T19:40:52.588Z,8.03
2023-03-21T19:46:00.082Z,7.97
2023-03-21T19:51:26.984Z,8.40
2023-03-21T19:56:22.382Z,8.57
2023-03-21T20:01:22.245Z,7.67
2023-03-21T20:06:27.740Z,16.87
2023-03-21T20:11:33.672Z,8.70
2023-03-21T20:16:43.096Z,8.37
2023-03-21T20:21:52.255Z,7.60
2023-03-21T20:26:53.855Z,8.57
2023-03-21T20:31:59.014Z,11.07
2023-03-21T20:37:06.280Z,16.83
2023-03-21T20:42:11.752Z,16.13
2023-03-21T20:47:17.058Z,17.57
2023-03-21T20:57:29.145Z,17.17
2023-03-21T21:02:34.373Z,15.30
2023-03-21T21:07:40.819Z,10.10
2023-03-21T21:12:46.761Z,10.80
2023-03-21T21:18:08.688Z,11.20
2023-03-21T21:23:00.914Z,13.10
2023-03-21T21:28:08.257Z,11.60
2023-03-21T21:33:22.236Z,12.47
2023-03-21T21:38:29.322Z,12.93
2023-03-21T21:43:34.446Z,12.13
2023-03-21T21:48:41.839Z,12.07
2023-03-21T21:53:48.499Z,10.30
2023-03-21T21:58:54.669Z,9.43
2023-03-21T22:04:01.469Z,10.97
2023-03-21T22:09:07.092Z,8.90
2023-03-21T22:14:12.356Z,9.40
2023-03-21T22:19:17.457Z,9.80
2023-03-21T22:24:22.601Z,8.97
2023-03-21T22:29:28.255Z,11.47
2023-03-21T22:34:33.451Z,11.63
2023-03-21T22:39:38.551Z,9.07
2023-03-21T22:44:43.701Z,10.40
2023-03-21T22:49:48.882Z,9.47
2023-03-21T22:54:53.997Z,9.40
2023-03-21T22:59:59.100Z,11.23
2023-03-21T23:05:04.515Z,11.00
2023-03-21T23:10:12.223Z,10.57
2023-03-21T23:15:17.466Z,10.07
2023-03-21T23:20:22.682Z,11.43
2023-03-21T23:25:29.071Z,9.30
2023-03-21T23:30:34.455Z,10.57
2023-03-21T23:35:39.601Z,12.87
2023-03-21T23:40:44.759Z,12.13
2023-03-21T23:45:51.799Z,13.47
2023-03-21T23:50:57.198Z,11.97
2023-03-21T23:56:02.460Z,12.23
